createdAt,value
2017-08-10T00:01:07.550Z,90.40
2017-08-10T00:03:35.174Z,90.70
2017-08-10T00:06:03.071Z,90.90
2017-08-10T00:08:30.640Z,90.90
2017-08-10T00:10:58.256Z,90.80
2017-08-10T00:13:26.042Z,91.00
2017-08-10T00:15:53.627Z,90.80
2017-08-10T00:18:21.260Z,90.80
2017-08-10T00:20:49.094Z,91.00
2017-08-10T00:23:16.773Z,90.50
2017-08-10T00:25:44.367Z,90.50
2017-08-10T00:28:11.966Z,90.30
2017-08-10T00:30:39.542Z,89.50
2017-08-10T00:33:07.111Z,88.00
2017-08-10T00:35:34.963Z,85.40
2017-08-10T00:38:02.587Z,85.20
2017-08-10T00:40:30.185Z,85.10
2017-08-10T00:42:57.777Z,83.20
2017-08-10T00:45:25.372Z,84.20
2017-08-10T00:47:53.795Z,84.50
2017-08-10T00:50:21.374Z,83.90
2017-08-10T00:52:49.237Z,83.60
2017-08-10T00:55:16.808Z,83.40
2017-08-10T00:57:44.752Z,84.60
2017-08-10T01:00:12.351Z,84.60
2017-08-10T01:02:39.911Z,84.20
2017-08-10T01:05:07.498Z,84.30
2017-08-10T01:07:35.835Z,85.20
2017-08-10T01:10:03.668Z,85.10
2017-08-10T01:12:31.247Z,84.70
2017-08-10T01:14:58.816Z,84.00
2017-08-10T01:17:26.424Z,83.60
2017-08-10T01:19:53.982Z,83.80
2017-08-10T01:22:22.341Z,84.60
2017-08-10T01:24:50.666Z,83.90
2017-08-10T01:27:18.551Z,83.80
2017-08-10T01:29:46.145Z,83.50
2017-08-10T01:32:14.580Z,83.50
2017-08-10T01:34:42.179Z,83.50
2017-08-10T01:37:09.761Z,85.20
2017-08-10T01:39:37.366Z,85.00
2017-08-10T01:42:04.931Z,84.70
2017-08-10T01:44:32.769Z,85.90
2017-08-10T01:47:00.349Z,86.60
2017-08-10T01:49:27.918Z,86.10
2017-08-10T01:51:55.524Z,86.40
2017-08-10T01:54:23.102Z,85.90
2017-08-10T01:56:50.691Z,85.70
2017-08-10T01:59:18.275Z,85.50
2017-08-10T02:01:46.213Z,86.10
2017-08-10T02:04:13.875Z,86.20
2017-08-10T02:06:41.439Z,85.00
2017-08-10T02:09:09.033Z,84.40
2017-08-10T02:11:37.387Z,85.70
2017-08-10T02:14:04.979Z,85.60
2017-08-10T02:16:33.323Z,87.20
2017-08-10T02:19:01.189Z,87.20
2017-08-10T02:21:28.767Z,86.90
2017-08-10T02:23:57.106Z,86.00
2017-08-10T02:26:24.736Z,86.50
2017-08-10T02:28:52.298Z,87.90
2017-08-10T02:31:19.900Z,88.60
2017-08-10T02:33:47.541Z,89.20
2017-08-10T02:36:15.431Z,89.40
2017-08-10T02:38:43.028Z,89.30
2017-08-10T02:41:11.386Z,90.00
2017-08-10T02:43:38.980Z,90.00
2017-08-10T02:46:06.617Z,89.90
2017-08-10T02:48:35.005Z,90.40
2017-08-10T02:51:03.415Z,90.10
2017-08-10T02:53:31.315Z,90.10
2017-08-10T02:55:58.973Z,90.10
2017-08-10T02:58:26.556Z,90.30
2017-08-10T03:00:54.324Z,90.00
2017-08-10T03:03:22.671Z,89.70
2017-08-10T03:05:50.337Z,89.60
2017-08-10T03:08:17.912Z,89.50
2017-08-10T03:10:45.800Z,89.20
2017-08-10T03:13:14.167Z,88.60
2017-08-10T03:15:42.535Z,89.50
2017-08-10T03:18:10.132Z,89.50
2017-08-10T03:20:37.724Z,89.80
2017-08-10T03:23:05.328Z,90.10
2017-08-10T03:25:33.668Z,90.30
2017-08-10T03:28:01.750Z,90.30
2017-08-10T03:30:29.344Z,90.20
2017-08-10T03:32:57.702Z,90.00
2017-08-10T03:35:25.298Z,90.00
2017-08-10T03:37:52.907Z,89.90
2017-08-10T03:40:20.785Z,90.00
2017-08-10T03:42:48.372Z,90.00
2017-08-10T03:45:16.723Z,90.00
2017-08-10T03:47:44.328Z,90.00
2017-08-10T03:50:11.912Z,90.10
2017-08-10T03:52:40.012Z,90.40
2017-08-10T03:55:07.599Z,90.10
2017-08-10T03:57:35.201Z,90.20
2017-08-10T04:00:02.799Z,90.40
2017-08-10T04:02:30.389Z,90.00
2017-08-10T04:04:58.328Z,90.50
2017-08-10T04:07:26.681Z,90.20
2017-08-10T04:09:54.252Z,90.10
2017-08-10T04:12:21.852Z,90.00
2017-08-10T04:14:49.421Z,90.10
2017-08-10T04:17:17.028Z,90.40
2017-08-10T04:19:44.621Z,90.30
2017-08-10T04:22:13.226Z,90.00
2017-08-10T04:24:40.810Z,90.00
2017-08-10T04:27:08.400Z,90.50
2017-08-10T04:29:36.022Z,90.40
2017-08-10T04:32:03.627Z,90.60
2017-08-10T04:34:31.199Z,90.30
2017-08-10T04:36:58.777Z,90.20
2017-08-10T04:39:26.693Z,90.10
2017-08-10T04:41:54.283Z,89.50
2017-08-10T04:44:22.625Z,90.30
2017-08-10T04:46:50.214Z,90.30
2017-08-10T04:49:17.786Z,90.40
2017-08-10T04:51:45.522Z,90.50
2017-08-10T04:54:13.086Z,90.40
2017-08-10T04:56:40.708Z,90.40
2017-08-10T04:59:08.281Z,90.80
2017-08-10T05:01:36.175Z,90.60
2017-08-10T05:04:03.742Z,90.90
2017-08-10T05:06:31.324Z,91.10
2017-08-10T05:08:58.932Z,90.50
2017-08-10T05:11:26.511Z,90.80
2017-08-10T05:13:54.094Z,90.60
2017-08-10T05:16:21.673Z,90.80
2017-08-10T05:18:49.565Z,90.90
2017-08-10T05:21:17.140Z,91.10
2017-08-10T05:23:44.732Z,90.90
2017-08-10T05:26:12.326Z,90.60
2017-08-10T05:28:39.896Z,90.20
2017-08-10T05:31:07.500Z,90.20
2017-08-10T05:33:35.089Z,90.50
2017-08-10T05:36:03.004Z,90.90
2017-08-10T05:38:30.591Z,90.80
2017-08-10T05:40:58.956Z,89.90
2017-08-10T05:43:26.555Z,90.10
2017-08-10T05:45:54.151Z,90.10
2017-08-10T05:48:21.769Z,90.20
2017-08-10T05:50:50.318Z,90.30
2017-08-10T05:53:18.301Z,90.10
2017-08-10T05:55:46.655Z,90.70
2017-08-10T05:58:14.244Z,90.30
2017-08-10T06:00:42.623Z,90.10
2017-08-10T06:03:10.964Z,90.00
2017-08-10T06:05:38.595Z,90.00
2017-08-10T06:08:06.178Z,89.70
2017-08-10T06:10:34.051Z,89.80
2017-08-10T06:13:01.635Z,89.50
2017-08-10T06:15:29.379Z,89.50
2017-08-10T06:17:57.000Z,88.70
2017-08-10T06:20:24.580Z,88.70
2017-08-10T06:22:52.179Z,88.50
2017-08-10T06:25:19.795Z,87.50
2017-08-10T06:27:47.691Z,86.70
2017-08-10T06:30:15.263Z,86.60
2017-08-10T06:32:42.851Z,86.50
2017-08-10T06:35:10.514Z,87.10
2017-08-10T06:37:38.094Z,87.40
2017-08-10T06:40:05.686Z,87.40
2017-08-10T06:42:33.267Z,87.50
2017-08-10T06:45:01.207Z,87.10
2017-08-10T06:47:28.773Z,87.40
2017-08-10T06:49:56.343Z,87.40
2017-08-10T06:52:23.939Z,87.40
2017-08-10T06:54:51.508Z,86.80
2017-08-10T06:57:19.097Z,87.70
2017-08-10T06:59:46.661Z,87.60
2017-08-10T07:02:14.523Z,87.50
2017-08-10T07:04:42.102Z,87.50
2017-08-10T07:07:09.667Z,89.70
2017-08-10T07:09:37.255Z,89.90
2017-08-10T07:12:05.611Z,88.80
2017-08-10T07:14:33.343Z,88.80
2017-08-10T07:17:00.913Z,88.90
2017-08-10T07:19:28.777Z,89.30
2017-08-10T07:21:56.356Z,88.50
2017-08-10T07:24:23.939Z,88.20
2017-08-10T07:26:52.336Z,90.10
2017-08-10T07:29:19.909Z,90.10
2017-08-10T07:31:47.515Z,88.80
2017-08-10T07:34:15.147Z,88.60
2017-08-10T07:36:43.238Z,89.10
2017-08-10T07:39:10.814Z,88.80
2017-08-10T07:41:38.393Z,88.50
2017-08-10T07:44:05.995Z,90.00
2017-08-10T07:46:33.573Z,88.30
2017-08-10T07:49:01.163Z,87.90
2017-08-10T07:51:29.506Z,86.30
2017-08-10T07:53:57.574Z,86.40
2017-08-10T07:56:25.118Z,87.20
2017-08-10T07:58:52.690Z,88.50
2017-08-10T08:01:20.337Z,88.30
2017-08-10T08:03:47.910Z,89.20
2017-08-10T08:06:15.500Z,88.90
2017-08-10T08:08:43.836Z,87.50
2017-08-10T08:11:11.720Z,87.50
2017-08-10T08:13:39.295Z,86.10
2017-08-10T08:16:06.870Z,86.30
2017-08-10T08:18:35.231Z,87.80
2017-08-10T08:21:02.827Z,87.60
2017-08-10T08:23:30.820Z,87.80
2017-08-10T08:25:58.424Z,87.70
2017-08-10T08:28:26.024Z,86.30
2017-08-10T08:30:53.622Z,86.00
2017-08-10T08:33:21.192Z,85.70
2017-08-10T08:35:48.786Z,86.80
2017-08-10T08:38:18.437Z,85.50
2017-08-10T08:40:46.415Z,85.50
2017-08-10T08:43:13.987Z,84.70
2017-08-10T08:45:41.562Z,85.50
2017-08-10T08:48:09.170Z,85.90
2017-08-10T08:50:36.743Z,86.10
2017-08-10T08:53:04.331Z,84.80
2017-08-10T08:55:31.887Z,85.00
2017-08-10T08:57:59.484Z,86.20
2017-08-10T09:00:27.077Z,85.00
2017-08-10T09:02:54.686Z,86.00
2017-08-10T09:05:23.445Z,85.30
2017-08-10T09:07:51.023Z,85.20
2017-08-10T09:10:18.636Z,84.30
2017-08-10T09:12:46.318Z,85.50
2017-08-10T09:15:13.905Z,85.50
2017-08-10T09:17:41.881Z,85.70
2017-08-10T09:20:10.277Z,85.50
2017-08-10T09:22:37.865Z,85.40
2017-08-10T09:25:05.471Z,86.20
2017-08-10T09:27:33.081Z,85.70
2017-08-10T09:30:00.676Z,87.10
2017-08-10T09:32:28.268Z,87.60
2017-08-10T09:34:56.936Z,87.60
2017-08-10T09:37:25.332Z,87.50
2017-08-10T09:39:53.752Z,87.60
2017-08-10T09:42:21.344Z,87.50
2017-08-10T09:44:48.962Z,86.60
2017-08-10T09:47:16.658Z,86.50
2017-08-10T09:49:44.233Z,84.70
2017-08-10T09:52:12.171Z,85.00
2017-08-10T09:54:39.755Z,84.40
2017-08-10T09:57:07.317Z,84.10
2017-08-10T09:59:34.918Z,85.50
2017-08-10T10:02:02.521Z,86.70
2017-08-10T10:04:30.382Z,87.90
2017-08-10T10:06:57.987Z,87.90
2017-08-10T10:09:26.319Z,88.80
2017-08-10T10:11:53.941Z,88.80
2017-08-10T10:14:21.541Z,88.30
2017-08-10T10:16:49.137Z,88.90
2017-08-10T10:19:16.761Z,87.20
2017-08-10T10:21:44.627Z,87.00
2017-08-10T10:24:12.223Z,87.00
2017-08-10T10:26:39.830Z,86.70
2017-08-10T10:29:07.431Z,87.60
2017-08-10T10:31:35.234Z,87.50
2017-08-10T10:34:02.849Z,87.00
2017-08-10T10:36:30.427Z,86.50
2017-08-10T10:38:59.086Z,85.80
2017-08-10T10:41:26.695Z,85.80
2017-08-10T10:43:54.317Z,85.30
2017-08-10T10:46:21.944Z,84.70
2017-08-10T10:48:49.579Z,84.70
2017-08-10T10:51:17.206Z,84.60
2017-08-10T10:53:45.607Z,85.60
2017-08-10T10:56:14.242Z,84.90
2017-08-10T10:58:41.832Z,84.90
2017-08-10T11:01:09.418Z,85.00
2017-08-10T11:03:37.080Z,84.80
2017-08-10T11:06:04.681Z,84.40
2017-08-10T11:08:32.314Z,84.30
2017-08-10T11:10:59.934Z,84.50
2017-08-10T11:13:27.895Z,84.10
2017-08-10T11:15:55.502Z,85.60
2017-08-10T11:18:23.241Z,84.70
2017-08-10T11:20:50.840Z,84.20
2017-08-10T11:23:18.417Z,84.40
2017-08-10T11:25:46.031Z,83.80
2017-08-10T11:28:13.641Z,83.70
2017-08-10T11:30:41.620Z,82.90
2017-08-10T11:33:09.229Z,82.90
2017-08-10T11:35:36.884Z,83.30
2017-08-10T11:38:04.496Z,83.20
2017-08-10T11:40:32.087Z,83.40
2017-08-10T11:43:00.441Z,84.80
2017-08-10T11:45:28.129Z,83.90
2017-08-10T11:47:55.966Z,83.70
2017-08-10T11:50:23.549Z,84.40
2017-08-10T11:52:51.887Z,83.00
2017-08-10T11:55:19.483Z,83.00
2017-08-10T11:57:47.839Z,81.70
2017-08-10T12:00:15.479Z,81.60
2017-08-10T12:02:43.837Z,81.60
2017-08-10T12:05:11.796Z,82.10
2017-08-10T12:07:39.368Z,81.90
2017-08-10T12:10:06.971Z,81.70
2017-08-10T12:12:34.697Z,82.50
2017-08-10T12:15:02.309Z,82.50
2017-08-10T12:17:30.993Z,79.40
2017-08-10T12:19:59.443Z,78.20
2017-08-10T12:22:27.208Z,78.10
2017-08-10T12:24:54.807Z,78.60
2017-08-10T12:27:23.143Z,79.40
2017-08-10T12:29:50.775Z,79.30
2017-08-10T12:32:18.349Z,80.10
2017-08-10T12:34:46.224Z,79.60
2017-08-10T12:37:13.808Z,80.70
2017-08-10T12:39:41.408Z,80.00
2017-08-10T12:42:09.021Z,80.20
2017-08-10T12:44:36.752Z,81.30
2017-08-10T12:47:04.378Z,80.20
2017-08-10T12:49:32.787Z,81.20
2017-08-10T12:52:00.686Z,81.20
2017-08-10T12:54:28.264Z,80.30
2017-08-10T12:56:55.848Z,82.30
2017-08-10T12:59:23.599Z,80.10
2017-08-10T13:01:51.215Z,80.80
2017-08-10T13:04:18.809Z,81.90
2017-08-10T13:06:47.146Z,81.40
2017-08-10T13:09:15.882Z,80.50
2017-08-10T13:11:44.235Z,81.00
2017-08-10T13:14:11.820Z,80.70
2017-08-10T13:16:39.406Z,79.10
2017-08-10T13:19:06.991Z,79.40
2017-08-10T13:21:34.635Z,78.70
2017-08-10T13:24:02.213Z,79.40
2017-08-10T13:26:30.199Z,80.90
2017-08-10T13:28:57.813Z,78.20
2017-08-10T13:31:25.483Z,75.80
2017-08-10T13:33:53.075Z,75.80
2017-08-10T13:36:20.659Z,76.50
2017-08-10T13:38:48.282Z,74.80
2017-08-10T13:41:15.864Z,75.30
2017-08-10T13:43:43.789Z,77.30
2017-08-10T13:46:11.321Z,78.50
2017-08-10T13:48:38.900Z,77.80
2017-08-10T13:51:06.503Z,77.20
2017-08-10T13:53:34.115Z,76.70
2017-08-10T13:56:01.980Z,75.30
2017-08-10T13:58:29.575Z,76.70
2017-08-10T14:00:57.155Z,76.90
2017-08-10T14:03:24.812Z,77.00
2017-08-10T14:05:52.400Z,75.90
2017-08-10T14:08:20.770Z,73.90
2017-08-10T14:10:48.417Z,73.80
2017-08-10T14:13:16.299Z,74.50
2017-08-10T14:15:43.918Z,73.50
2017-08-10T14:18:11.673Z,70.60
2017-08-10T14:20:39.328Z,70.30
2017-08-10T14:23:06.926Z,70.80
2017-08-10T14:25:34.523Z,69.50
2017-08-10T14:28:02.861Z,69.30
2017-08-10T14:30:32.123Z,69.30
2017-08-10T14:32:59.711Z,67.80
2017-08-10T14:35:27.320Z,67.80
2017-08-10T14:37:55.006Z,68.70
2017-08-10T14:40:22.585Z,69.50
2017-08-10T14:42:50.956Z,69.40
2017-08-10T14:45:18.528Z,70.80
2017-08-10T14:47:46.403Z,72.00
2017-08-10T14:50:13.991Z,70.60
2017-08-10T14:52:42.341Z,70.50
2017-08-10T14:55:09.935Z,70.50
2017-08-10T14:57:37.506Z,68.90
2017-08-10T15:00:05.108Z,69.10
2017-08-10T15:02:32.746Z,67.00
2017-08-10T15:05:00.716Z,66.60
2017-08-10T15:07:28.319Z,64.40
2017-08-10T15:09:55.927Z,63.70
2017-08-10T15:12:23.528Z,65.20
2017-08-10T15:14:51.163Z,66.40
2017-08-10T15:17:18.763Z,64.00
2017-08-10T15:19:46.375Z,63.10
2017-08-10T15:22:14.303Z,66.00
2017-08-10T15:24:41.834Z,65.70
2017-08-10T15:27:09.465Z,65.70
2017-08-10T15:29:37.078Z,66.50
2017-08-10T15:32:04.633Z,66.00
2017-08-10T15:34:32.490Z,66.30
2017-08-10T15:37:00.127Z,67.30
2017-08-10T15:39:27.721Z,67.00
2017-08-10T15:41:56.134Z,65.60
2017-08-10T15:44:23.759Z,65.10
2017-08-10T15:46:51.703Z,65.50
2017-08-10T15:49:19.402Z,65.80
2017-08-10T15:51:47.074Z,67.20
2017-08-10T15:54:15.441Z,66.50
2017-08-10T15:56:43.804Z,66.60
2017-08-10T15:59:11.436Z,66.60
2017-08-10T16:01:39.081Z,66.30
2017-08-10T16:04:06.972Z,68.40
2017-08-10T16:06:34.579Z,67.20
2017-08-10T16:09:02.282Z,65.20
2017-08-10T16:11:30.178Z,63.70
2017-08-10T16:13:57.731Z,64.10
2017-08-10T16:16:25.361Z,63.40
2017-08-10T16:18:52.940Z,64.80
2017-08-10T16:21:20.928Z,64.00
2017-08-10T16:23:48.523Z,62.90
2017-08-10T16:26:16.959Z,62.90
2017-08-10T16:28:44.590Z,62.90
2017-08-10T16:31:12.176Z,63.50
2017-08-10T16:33:39.789Z,64.80
2017-08-10T16:36:07.365Z,64.20
2017-08-10T16:38:35.317Z,63.90
2017-08-10T16:41:02.918Z,64.20
2017-08-10T16:43:30.529Z,65.10
2017-08-10T16:45:58.332Z,65.10
2017-08-10T16:48:25.911Z,65.70
2017-08-10T16:50:53.509Z,67.10
2017-08-10T16:53:21.194Z,66.40
2017-08-10T16:55:49.094Z,67.40
2017-08-10T16:58:16.671Z,68.60
2017-08-10T17:00:44.240Z,68.50
2017-08-10T17:03:12.664Z,70.20
2017-08-10T17:05:40.296Z,70.00
2017-08-10T17:08:08.952Z,71.50
2017-08-10T17:10:36.574Z,71.50
2017-08-10T17:13:04.182Z,72.00
2017-08-10T17:15:32.552Z,73.50
2017-08-10T17:18:02.282Z,72.90
2017-08-10T17:20:29.921Z,74.10
2017-08-10T17:22:57.507Z,74.30
2017-08-10T17:25:26.266Z,74.80
2017-08-10T17:27:53.845Z,74.80
2017-08-10T17:30:21.474Z,75.50
2017-08-10T17:32:49.078Z,74.30
2017-08-10T17:35:16.692Z,75.20
2017-08-10T17:37:44.325Z,76.10
2017-08-10T17:40:11.918Z,76.20
2017-08-10T17:42:39.777Z,75.50
2017-08-10T17:45:08.451Z,76.00
2017-08-10T17:47:36.414Z,76.80
2017-08-10T17:50:04.063Z,76.60
2017-08-10T17:52:31.652Z,77.90
2017-08-10T17:54:59.279Z,78.20
2017-08-10T17:57:26.869Z,78.80
2017-08-10T17:59:54.465Z,78.70
2017-08-10T18:02:22.083Z,79.20
2017-08-10T18:04:49.679Z,79.30
2017-08-10T18:07:18.387Z,79.60
2017-08-10T18:09:46.056Z,80.30
2017-08-10T18:12:13.626Z,79.50
2017-08-10T18:14:41.400Z,79.30
2017-08-10T18:17:08.998Z,78.90
2017-08-10T18:19:37.130Z,78.90
2017-08-10T18:22:04.701Z,77.80
2017-08-10T18:24:32.289Z,78.10
2017-08-10T18:26:59.909Z,79.00
2017-08-10T18:29:27.465Z,78.60
2017-08-10T18:31:55.346Z,78.40
2017-08-10T18:34:22.906Z,78.40
2017-08-10T18:36:50.516Z,79.60
2017-08-10T18:39:18.887Z,80.40
2017-08-10T18:41:47.252Z,80.60
2017-08-10T18:44:15.185Z,80.60
2017-08-10T18:46:42.790Z,81.70
2017-08-10T18:49:10.392Z,83.50
2017-08-10T18:51:38.005Z,83.30
2017-08-10T18:54:05.605Z,83.90
2017-08-10T18:56:33.267Z,85.00
2017-08-10T18:59:00.864Z,84.00
2017-08-10T19:01:28.493Z,84.20
2017-08-10T19:03:56.080Z,84.90
2017-08-10T19:06:23.722Z,85.10
2017-08-10T19:08:51.325Z,86.00
2017-08-10T19:11:19.391Z,86.60
2017-08-10T19:13:46.981Z,87.70
2017-08-10T19:16:14.560Z,88.10
2017-08-10T19:18:42.182Z,88.30
2017-08-10T19:21:09.767Z,88.70
2017-08-10T19:23:37.378Z,88.80
2017-08-10T19:26:04.970Z,89.20
2017-08-10T19:28:33.355Z,89.60
2017-08-10T19:31:00.947Z,89.60
2017-08-10T19:33:28.823Z,90.10
2017-08-10T19:35:56.445Z,90.20
2017-08-10T19:38:24.048Z,90.20
2017-08-10T19:40:51.648Z,90.40
2017-08-10T19:43:20.013Z,90.80
2017-08-10T19:45:47.972Z,90.50
2017-08-10T19:48:15.604Z,90.60
2017-08-10T19:50:43.203Z,90.50
2017-08-10T19:53:10.864Z,90.70
2017-08-10T19:55:38.482Z,90.70
2017-08-10T19:58:06.453Z,90.70
2017-08-10T20:00:34.066Z,90.80
2017-08-10T20:03:01.719Z,91.00
2017-08-10T20:05:29.382Z,91.10
2017-08-10T20:07:57.011Z,91.30
2017-08-10T20:10:24.606Z,91.30
2017-08-10T20:12:52.248Z,91.40
2017-08-10T20:15:20.223Z,91.70
2017-08-10T20:17:47.822Z,91.80
2017-08-10T20:20:15.413Z,92.30
2017-08-10T20:22:43.059Z,92.10
2017-08-10T20:25:10.646Z,92.20
2017-08-10T20:27:38.234Z,92.40
2017-08-10T20:30:05.802Z,92.40
2017-08-10T20:32:34.650Z,92.20
2017-08-10T20:35:02.296Z,92.30
2017-08-10T20:37:29.877Z,92.10
2017-08-10T20:39:57.534Z,92.30
2017-08-10T20:42:25.172Z,92.30
2017-08-10T20:44:52.802Z,92.30
2017-08-10T20:47:21.146Z,92.00
2017-08-10T20:49:49.125Z,92.00
2017-08-10T20:52:16.707Z,91.80
2017-08-10T20:54:45.054Z,91.70
2017-08-10T20:57:12.670Z,91.70
2017-08-10T20:59:40.251Z,92.10
2017-08-10T21:02:07.872Z,92.20
2017-08-10T21:04:36.250Z,92.50
2017-08-10T21:07:04.864Z,92.40
2017-08-10T21:09:32.453Z,92.40
2017-08-10T21:12:00.049Z,92.40
2017-08-10T21:14:28.434Z,92.70
2017-08-10T21:16:56.782Z,92.70
2017-08-10T21:19:24.419Z,92.70
2017-08-10T21:21:52.030Z,92.70
2017-08-10T21:24:20.647Z,92.90
2017-08-10T21:26:48.228Z,92.80
2017-08-10T21:29:15.817Z,92.70
2017-08-10T21:31:44.186Z,93.10
2017-08-10T21:34:11.768Z,92.80
2017-08-10T21:36:40.512Z,92.60
2017-08-10T21:39:08.107Z,92.60
2017-08-10T21:41:36.451Z,93.00
2017-08-10T21:44:04.064Z,92.70
2017-08-10T21:46:31.691Z,92.80
2017-08-10T21:48:59.643Z,93.10
2017-08-10T21:51:27.223Z,92.70
2017-08-10T21:53:54.826Z,92.00
2017-08-10T21:56:22.449Z,91.80
2017-08-10T21:58:50.078Z,91.70
2017-08-10T22:01:18.669Z,91.60
2017-08-10T22:03:46.272Z,91.70
2017-08-10T22:06:16.416Z,91.40
2017-08-10T22:08:44.198Z,91.30
2017-08-10T22:11:11.779Z,91.40
2017-08-10T22:13:39.760Z,91.30
2017-08-10T22:16:07.357Z,91.30
2017-08-10T22:18:34.924Z,91.20
2017-08-10T22:21:02.548Z,91.00
2017-08-10T22:23:30.888Z,91.20
2017-08-10T22:25:58.438Z,91.20
2017-08-10T22:28:26.003Z,91.40
2017-08-10T22:30:53.872Z,91.70
2017-08-10T22:33:21.436Z,91.80
2017-08-10T22:35:49.021Z,91.70
2017-08-10T22:38:16.650Z,91.70
2017-08-10T22:40:44.230Z,91.80
2017-08-10T22:43:11.829Z,91.90
2017-08-10T22:45:39.399Z,92.00
2017-08-10T22:48:07.334Z,92.10
2017-08-10T22:50:34.939Z,92.00
2017-08-10T22:53:02.528Z,92.40
2017-08-10T22:55:30.145Z,92.10
2017-08-10T22:57:57.764Z,92.30
2017-08-10T23:00:25.407Z,92.20
2017-08-10T23:02:52.993Z,92.00
2017-08-10T23:05:21.646Z,91.60
2017-08-10T23:07:49.243Z,91.60
2017-08-10T23:10:17.606Z,91.70
2017-08-10T23:12:45.203Z,91.70
2017-08-10T23:15:12.805Z,91.80
2017-08-10T23:17:40.790Z,91.90
2017-08-10T23:20:08.428Z,91.90
2017-08-10T23:22:36.001Z,91.90
2017-08-10T23:25:03.623Z,92.00
2017-08-10T23:27:31.204Z,92.00
2017-08-10T23:29:58.810Z,92.10
2017-08-10T23:32:27.142Z,92.30
2017-08-10T23:34:55.011Z,92.20
2017-08-10T23:37:22.598Z,92.20
2017-08-10T23:39:50.177Z,92.10
2017-08-10T23:42:18.531Z,92.30
2017-08-10T23:44:46.132Z,92.30
2017-08-10T23:47:13.757Z,92.20
2017-08-10T23:49:41.440Z,92.20
2017-08-10T23:52:09.277Z,92.00
2017-08-10T23:54:36.871Z,92.30
2017-08-10T23:57:04.440Z,92.00
2017-08-10T23:59:32.030Z,92.10
